<?xml version="1.0" encoding="UTF-8" standalone="no" ?>
<gpx xmlns="http://www.topografix.com/GPX/1/1" xmlns:xsi="http://www.w3.org/2001/XMLSchema-instance" xsi:schemaLocation="http://www.topografix.com/GPX/1/1 http://www.topografix.com/GPX/1/1/gpx.xsd" version="1.1" creator="VisuGPX - https://www.visugpx.com">
  <metadata>
    <name>Pêne Bedout-65-Ski</name>
    <desc><![CDATA[Sommet très agréable à réaliser quand la neige est basse ]]></desc>
  </metadata>
  <trk>
    <name><![CDATA[2021-12-18 Pêne Bedout]]></name>
    <desc><![CDATA[<p>Heure de départ: 09:46 18 déc. 2021<br/>Heure d'arrivée: 12:37 18 déc. 2021<br/>Distance: 6,1 km (02:51)<br/>Temps déplacement: 01:18<br/>Vitesse moyenne: 2,15 km/h<br/>Vitesse moyenne mouv.: 4,72 km/h<br/>Vitesse Max.: 33,84 km/h<br/>Altitude minimale: 1004 m<br/>Altitude maximale: 1795 m<br/>Vitesse de montée: 435 m/h<br/>Vitesse de descente: -754,1 m/h<br/>Gain d'altitude: 789 m<br/>Perte d'altitude: -788 m<br/>Temps de montée: 01:48<br/>Temps de descente: 01:02<br/></p><hr align="center" width="480" style="height: 2px; width: 517px"/>]]></desc>
    <trkseg>
      <trkpt lat="42.96261" lon="0.25475">
        <ele>1005</ele>
        <time>2021-12-18T08:46:06Z</time>
      </trkpt>
      <trkpt lat="42.96273" lon="0.25494">
        <ele>1005</ele>
        <time>2021-12-18T08:48:28Z</time>
      </trkpt>
      <trkpt lat="42.96285" lon="0.25512">
        <ele>1011</ele>
        <time>2021-12-18T08:48:52Z</time>
      </trkpt>
      <trkpt lat="42.96301" lon="0.25526">
        <ele>1011</ele>
        <time>2021-12-18T08:49:20Z</time>
      </trkpt>
      <trkpt lat="42.96314" lon="0.25543">
        <ele>1020</ele>
        <time>2021-12-18T08:49:53Z</time>
      </trkpt>
      <trkpt lat="42.96317" lon="0.25568">
        <ele>1025</ele>
        <time>2021-12-18T08:50:21Z</time>
      </trkpt>
      <trkpt lat="42.9632" lon="0.25593">
        <ele>1030</ele>
        <time>2021-12-18T08:50:47Z</time>
      </trkpt>
      <trkpt lat="42.96329" lon="0.25615">
        <ele>1036</ele>
        <time>2021-12-18T08:51:28Z</time>
      </trkpt>
      <trkpt lat="42.9632" lon="0.25637">
        <ele>1036</ele>
        <time>2021-12-18T08:52:03Z</time>
      </trkpt>
      <trkpt lat="42.9631" lon="0.25659">
        <ele>1043</ele>
        <time>2021-12-18T08:52:30Z</time>
      </trkpt>
      <trkpt lat="42.96302" lon="0.25681">
        <ele>1044</ele>
        <time>2021-12-18T08:52:54Z</time>
      </trkpt>
      <trkpt lat="42.96294" lon="0.25704">
        <ele>1051</ele>
        <time>2021-12-18T08:53:41Z</time>
      </trkpt>
      <trkpt lat="42.96283" lon="0.25723">
        <ele>1056.6</ele>
        <time>2021-12-18T08:54:07Z</time>
      </trkpt>
      <trkpt lat="42.96273" lon="0.25745">
        <ele>1052</ele>
        <time>2021-12-18T08:54:35Z</time>
      </trkpt>
      <trkpt lat="42.96264" lon="0.25767">
        <ele>1060</ele>
        <time>2021-12-18T08:55:12Z</time>
      </trkpt>
      <trkpt lat="42.96257" lon="0.2579">
        <ele>1069</ele>
        <time>2021-12-18T08:55:39Z</time>
      </trkpt>
      <trkpt lat="42.9625" lon="0.25814">
        <ele>1070.63</ele>
        <time>2021-12-18T08:56:11Z</time>
      </trkpt>
      <trkpt lat="42.96258" lon="0.25836">
        <ele>1084.99</ele>
        <time>2021-12-18T08:56:52Z</time>
      </trkpt>
      <trkpt lat="42.96265" lon="0.25859">
        <ele>1085</ele>
        <time>2021-12-18T08:57:44Z</time>
      </trkpt>
      <trkpt lat="42.96284" lon="0.25863">
        <ele>1100</ele>
        <time>2021-12-18T08:58:19Z</time>
      </trkpt>
      <trkpt lat="42.96302" lon="0.2586">
        <ele>1093.01</ele>
        <time>2021-12-18T08:58:50Z</time>
      </trkpt>
      <trkpt lat="42.96315" lon="0.25879">
        <ele>1109</ele>
        <time>2021-12-18T08:59:50Z</time>
      </trkpt>
      <trkpt lat="42.96333" lon="0.25882">
        <ele>1109</ele>
        <time>2021-12-18T09:00:32Z</time>
      </trkpt>
      <trkpt lat="42.96351" lon="0.25877">
        <ele>1118</ele>
        <time>2021-12-18T09:01:05Z</time>
      </trkpt>
      <trkpt lat="42.96353" lon="0.25902">
        <ele>1124</ele>
        <time>2021-12-18T09:02:03Z</time>
      </trkpt>
      <trkpt lat="42.96369" lon="0.25913">
        <ele>1134</ele>
        <time>2021-12-18T09:02:59Z</time>
      </trkpt>
      <trkpt lat="42.96385" lon="0.25922">
        <ele>1142</ele>
        <time>2021-12-18T09:03:51Z</time>
      </trkpt>
      <trkpt lat="42.96398" lon="0.2594">
        <ele>1152</ele>
        <time>2021-12-18T09:05:02Z</time>
      </trkpt>
      <trkpt lat="42.96416" lon="0.25934">
        <ele>1152</ele>
        <time>2021-12-18T09:05:32Z</time>
      </trkpt>
      <trkpt lat="42.96434" lon="0.25928">
        <ele>1161</ele>
        <time>2021-12-18T09:06:05Z</time>
      </trkpt>
      <trkpt lat="42.96453" lon="0.2593">
        <ele>1164</ele>
        <time>2021-12-18T09:06:30Z</time>
      </trkpt>
      <trkpt lat="42.96471" lon="0.25933">
        <ele>1164</ele>
        <time>2021-12-18T09:11:39Z</time>
      </trkpt>
      <trkpt lat="42.96487" lon="0.25946">
        <ele>1166.46</ele>
        <time>2021-12-18T09:12:02Z</time>
      </trkpt>
      <trkpt lat="42.965" lon="0.25964">
        <ele>1164.2</ele>
        <time>2021-12-18T09:12:24Z</time>
      </trkpt>
      <trkpt lat="42.96512" lon="0.25982">
        <ele>1168</ele>
        <time>2021-12-18T09:12:44Z</time>
      </trkpt>
      <trkpt lat="42.96526" lon="0.25998">
        <ele>1168</ele>
        <time>2021-12-18T09:13:06Z</time>
      </trkpt>
      <trkpt lat="42.96543" lon="0.2601">
        <ele>1176</ele>
        <time>2021-12-18T09:13:26Z</time>
      </trkpt>
      <trkpt lat="42.9656" lon="0.26022">
        <ele>1178</ele>
        <time>2021-12-18T09:13:57Z</time>
      </trkpt>
      <trkpt lat="42.96576" lon="0.26035">
        <ele>1183</ele>
        <time>2021-12-18T09:14:44Z</time>
      </trkpt>
      <trkpt lat="42.96579" lon="0.2606">
        <ele>1188</ele>
        <time>2021-12-18T09:15:13Z</time>
      </trkpt>
      <trkpt lat="42.96579" lon="0.26085">
        <ele>1194.37</ele>
        <time>2021-12-18T09:15:33Z</time>
      </trkpt>
      <trkpt lat="42.96594" lon="0.261">
        <ele>1199</ele>
        <time>2021-12-18T09:16:04Z</time>
      </trkpt>
      <trkpt lat="42.96612" lon="0.26106">
        <ele>1199.91</ele>
        <time>2021-12-18T09:16:27Z</time>
      </trkpt>
      <trkpt lat="42.96631" lon="0.26108">
        <ele>1200</ele>
        <time>2021-12-18T09:16:57Z</time>
      </trkpt>
      <trkpt lat="42.96647" lon="0.26121">
        <ele>1207</ele>
        <time>2021-12-18T09:17:24Z</time>
      </trkpt>
      <trkpt lat="42.96663" lon="0.26134">
        <ele>1207</ele>
        <time>2021-12-18T09:18:01Z</time>
      </trkpt>
      <trkpt lat="42.96679" lon="0.26146">
        <ele>1217</ele>
        <time>2021-12-18T09:18:33Z</time>
      </trkpt>
      <trkpt lat="42.96695" lon="0.26157">
        <ele>1223.81</ele>
        <time>2021-12-18T09:19:05Z</time>
      </trkpt>
      <trkpt lat="42.96711" lon="0.2617">
        <ele>1228</ele>
        <time>2021-12-18T09:19:39Z</time>
      </trkpt>
      <trkpt lat="42.96727" lon="0.26181">
        <ele>1236</ele>
        <time>2021-12-18T09:20:07Z</time>
      </trkpt>
      <trkpt lat="42.96743" lon="0.26194">
        <ele>1236</ele>
        <time>2021-12-18T09:20:41Z</time>
      </trkpt>
      <trkpt lat="42.96761" lon="0.26193">
        <ele>1245</ele>
        <time>2021-12-18T09:21:27Z</time>
      </trkpt>
      <trkpt lat="42.96777" lon="0.26182">
        <ele>1245</ele>
        <time>2021-12-18T09:22:12Z</time>
      </trkpt>
      <trkpt lat="42.96787" lon="0.26162">
        <ele>1250</ele>
        <time>2021-12-18T09:22:32Z</time>
      </trkpt>
      <trkpt lat="42.96805" lon="0.26155">
        <ele>1250</ele>
        <time>2021-12-18T09:22:57Z</time>
      </trkpt>
      <trkpt lat="42.96811" lon="0.26178">
        <ele>1251</ele>
        <time>2021-12-18T09:24:39Z</time>
      </trkpt>
      <trkpt lat="42.96827" lon="0.26191">
        <ele>1251</ele>
        <time>2021-12-18T09:25:01Z</time>
      </trkpt>
      <trkpt lat="42.96844" lon="0.26201">
        <ele>1253</ele>
        <time>2021-12-18T09:25:22Z</time>
      </trkpt>
      <trkpt lat="42.96862" lon="0.26208">
        <ele>1254.4</ele>
        <time>2021-12-18T09:25:44Z</time>
      </trkpt>
      <trkpt lat="42.96876" lon="0.26224">
        <ele>1256</ele>
        <time>2021-12-18T09:26:14Z</time>
      </trkpt>
      <trkpt lat="42.96893" lon="0.26233">
        <ele>1260</ele>
        <time>2021-12-18T09:26:38Z</time>
      </trkpt>
      <trkpt lat="42.96909" lon="0.26247">
        <ele>1260</ele>
        <time>2021-12-18T09:27:01Z</time>
      </trkpt>
      <trkpt lat="42.96925" lon="0.26259">
        <ele>1266</ele>
        <time>2021-12-18T09:27:23Z</time>
      </trkpt>
      <trkpt lat="42.9694" lon="0.26272">
        <ele>1266</ele>
        <time>2021-12-18T09:27:48Z</time>
      </trkpt>
      <trkpt lat="42.96958" lon="0.26282">
        <ele>1270</ele>
        <time>2021-12-18T09:28:18Z</time>
      </trkpt>
      <trkpt lat="42.96974" lon="0.26294">
        <ele>1271.95</ele>
        <time>2021-12-18T09:28:51Z</time>
      </trkpt>
      <trkpt lat="42.9699" lon="0.26304">
        <ele>1272</ele>
        <time>2021-12-18T09:29:21Z</time>
      </trkpt>
      <trkpt lat="42.97004" lon="0.26321">
        <ele>1278</ele>
        <time>2021-12-18T09:29:48Z</time>
      </trkpt>
      <trkpt lat="42.97019" lon="0.26334">
        <ele>1281.5</ele>
        <time>2021-12-18T09:30:18Z</time>
      </trkpt>
      <trkpt lat="42.97037" lon="0.26338">
        <ele>1287</ele>
        <time>2021-12-18T09:30:42Z</time>
      </trkpt>
      <trkpt lat="42.97056" lon="0.26342">
        <ele>1287</ele>
        <time>2021-12-18T09:31:11Z</time>
      </trkpt>
      <trkpt lat="42.97072" lon="0.26353">
        <ele>1293</ele>
        <time>2021-12-18T09:31:50Z</time>
      </trkpt>
      <trkpt lat="42.97091" lon="0.26354">
        <ele>1302</ele>
        <time>2021-12-18T09:32:30Z</time>
      </trkpt>
      <trkpt lat="42.97107" lon="0.26342">
        <ele>1302</ele>
        <time>2021-12-18T09:33:01Z</time>
      </trkpt>
      <trkpt lat="42.97123" lon="0.26355">
        <ele>1314</ele>
        <time>2021-12-18T09:33:41Z</time>
      </trkpt>
      <trkpt lat="42.97137" lon="0.26338">
        <ele>1314</ele>
        <time>2021-12-18T09:34:17Z</time>
      </trkpt>
      <trkpt lat="42.97145" lon="0.26361">
        <ele>1327</ele>
        <time>2021-12-18T09:34:51Z</time>
      </trkpt>
      <trkpt lat="42.97162" lon="0.26351">
        <ele>1327</ele>
        <time>2021-12-18T09:35:48Z</time>
      </trkpt>
      <trkpt lat="42.97179" lon="0.26341">
        <ele>1337</ele>
        <time>2021-12-18T09:36:27Z</time>
      </trkpt>
      <trkpt lat="42.97197" lon="0.26334">
        <ele>1348.68</ele>
        <time>2021-12-18T09:36:56Z</time>
      </trkpt>
      <trkpt lat="42.97211" lon="0.2635">
        <ele>1349</ele>
        <time>2021-12-18T09:37:34Z</time>
      </trkpt>
      <trkpt lat="42.9721" lon="0.26375">
        <ele>1355</ele>
        <time>2021-12-18T09:38:05Z</time>
      </trkpt>
      <trkpt lat="42.97222" lon="0.26393">
        <ele>1359</ele>
        <time>2021-12-18T09:38:50Z</time>
      </trkpt>
      <trkpt lat="42.97239" lon="0.26385">
        <ele>1364</ele>
        <time>2021-12-18T09:39:21Z</time>
      </trkpt>
      <trkpt lat="42.97258" lon="0.26384">
        <ele>1372</ele>
        <time>2021-12-18T09:39:52Z</time>
      </trkpt>
      <trkpt lat="42.97275" lon="0.2638">
        <ele>1372</ele>
        <time>2021-12-18T09:40:25Z</time>
      </trkpt>
      <trkpt lat="42.97291" lon="0.26394">
        <ele>1386.98</ele>
        <time>2021-12-18T09:41:20Z</time>
      </trkpt>
      <trkpt lat="42.9729" lon="0.26418">
        <ele>1391.55</ele>
        <time>2021-12-18T09:41:43Z</time>
      </trkpt>
      <trkpt lat="42.97305" lon="0.26433">
        <ele>1392</ele>
        <time>2021-12-18T09:42:29Z</time>
      </trkpt>
      <trkpt lat="42.97323" lon="0.26427">
        <ele>1400</ele>
        <time>2021-12-18T09:43:09Z</time>
      </trkpt>
      <trkpt lat="42.97342" lon="0.26424">
        <ele>1408</ele>
        <time>2021-12-18T09:45:33Z</time>
      </trkpt>
      <trkpt lat="42.9736" lon="0.26423">
        <ele>1408</ele>
        <time>2021-12-18T09:46:09Z</time>
      </trkpt>
      <trkpt lat="42.97378" lon="0.26421">
        <ele>1416</ele>
        <time>2021-12-18T09:46:37Z</time>
      </trkpt>
      <trkpt lat="42.97378" lon="0.26446">
        <ele>1421.46</ele>
        <time>2021-12-18T09:47:17Z</time>
      </trkpt>
      <trkpt lat="42.97388" lon="0.26467">
        <ele>1422</ele>
        <time>2021-12-18T09:48:08Z</time>
      </trkpt>
      <trkpt lat="42.97406" lon="0.26471">
        <ele>1431</ele>
        <time>2021-12-18T09:48:55Z</time>
      </trkpt>
      <trkpt lat="42.97424" lon="0.26474">
        <ele>1445.95</ele>
        <time>2021-12-18T09:49:37Z</time>
      </trkpt>
      <trkpt lat="42.97443" lon="0.26474">
        <ele>1446</ele>
        <time>2021-12-18T09:50:06Z</time>
      </trkpt>
      <trkpt lat="42.97457" lon="0.26489">
        <ele>1455</ele>
        <time>2021-12-18T09:51:05Z</time>
      </trkpt>
      <trkpt lat="42.97474" lon="0.26497">
        <ele>1464.92</ele>
        <time>2021-12-18T09:51:51Z</time>
      </trkpt>
      <trkpt lat="42.97493" lon="0.26499">
        <ele>1465</ele>
        <time>2021-12-18T09:52:25Z</time>
      </trkpt>
      <trkpt lat="42.97511" lon="0.26496">
        <ele>1472</ele>
        <time>2021-12-18T09:53:08Z</time>
      </trkpt>
      <trkpt lat="42.97514" lon="0.2652">
        <ele>1480</ele>
        <time>2021-12-18T09:53:45Z</time>
      </trkpt>
      <trkpt lat="42.97531" lon="0.26531">
        <ele>1495.76</ele>
        <time>2021-12-18T09:54:45Z</time>
      </trkpt>
      <trkpt lat="42.97544" lon="0.26547">
        <ele>1496</ele>
        <time>2021-12-18T09:55:31Z</time>
      </trkpt>
      <trkpt lat="42.97538" lon="0.26571">
        <ele>1503</ele>
        <time>2021-12-18T09:56:06Z</time>
      </trkpt>
      <trkpt lat="42.97556" lon="0.26575">
        <ele>1511.19</ele>
        <time>2021-12-18T09:56:45Z</time>
      </trkpt>
      <trkpt lat="42.97574" lon="0.26578">
        <ele>1512</ele>
        <time>2021-12-18T09:57:31Z</time>
      </trkpt>
      <trkpt lat="42.97571" lon="0.26602">
        <ele>1519</ele>
        <time>2021-12-18T09:58:00Z</time>
      </trkpt>
      <trkpt lat="42.97587" lon="0.26612">
        <ele>1532.99</ele>
        <time>2021-12-18T09:58:47Z</time>
      </trkpt>
      <trkpt lat="42.97594" lon="0.26635">
        <ele>1533</ele>
        <time>2021-12-18T09:59:39Z</time>
      </trkpt>
      <trkpt lat="42.97603" lon="0.26657">
        <ele>1537</ele>
        <time>2021-12-18T10:00:27Z</time>
      </trkpt>
      <trkpt lat="42.97621" lon="0.2666">
        <ele>1547</ele>
        <time>2021-12-18T10:01:07Z</time>
      </trkpt>
      <trkpt lat="42.97627" lon="0.26684">
        <ele>1552</ele>
        <time>2021-12-18T10:01:48Z</time>
      </trkpt>
      <trkpt lat="42.97644" lon="0.26695">
        <ele>1562.5</ele>
        <time>2021-12-18T10:02:34Z</time>
      </trkpt>
      <trkpt lat="42.97657" lon="0.26711">
        <ele>1564</ele>
        <time>2021-12-18T10:03:24Z</time>
      </trkpt>
      <trkpt lat="42.97659" lon="0.26736">
        <ele>1569</ele>
        <time>2021-12-18T10:03:58Z</time>
      </trkpt>
      <trkpt lat="42.97663" lon="0.2676">
        <ele>1572</ele>
        <time>2021-12-18T10:04:29Z</time>
      </trkpt>
      <trkpt lat="42.97664" lon="0.26785">
        <ele>1574</ele>
        <time>2021-12-18T10:04:57Z</time>
      </trkpt>
      <trkpt lat="42.9768" lon="0.26799">
        <ele>1586</ele>
        <time>2021-12-18T10:05:59Z</time>
      </trkpt>
      <trkpt lat="42.9769" lon="0.2682">
        <ele>1587</ele>
        <time>2021-12-18T10:06:27Z</time>
      </trkpt>
      <trkpt lat="42.97707" lon="0.26831">
        <ele>1597</ele>
        <time>2021-12-18T10:07:21Z</time>
      </trkpt>
      <trkpt lat="42.97725" lon="0.26828">
        <ele>1604.98</ele>
        <time>2021-12-18T10:07:56Z</time>
      </trkpt>
      <trkpt lat="42.97743" lon="0.26823">
        <ele>1605</ele>
        <time>2021-12-18T10:08:25Z</time>
      </trkpt>
      <trkpt lat="42.97757" lon="0.26839">
        <ele>1617</ele>
        <time>2021-12-18T10:09:25Z</time>
      </trkpt>
      <trkpt lat="42.97773" lon="0.26854">
        <ele>1617</ele>
        <time>2021-12-18T10:10:11Z</time>
      </trkpt>
      <trkpt lat="42.97789" lon="0.26865">
        <ele>1629</ele>
        <time>2021-12-18T10:11:05Z</time>
      </trkpt>
      <trkpt lat="42.97807" lon="0.26859">
        <ele>1634.99</ele>
        <time>2021-12-18T10:11:32Z</time>
      </trkpt>
      <trkpt lat="42.97826" lon="0.26861">
        <ele>1635</ele>
        <time>2021-12-18T10:12:10Z</time>
      </trkpt>
      <trkpt lat="42.97843" lon="0.26867">
        <ele>1648</ele>
        <time>2021-12-18T10:12:57Z</time>
      </trkpt>
      <trkpt lat="42.97858" lon="0.2688">
        <ele>1648</ele>
        <time>2021-12-18T10:13:51Z</time>
      </trkpt>
      <trkpt lat="42.97876" lon="0.26877">
        <ele>1657</ele>
        <time>2021-12-18T10:14:21Z</time>
      </trkpt>
      <trkpt lat="42.97892" lon="0.26888">
        <ele>1670</ele>
        <time>2021-12-18T10:15:25Z</time>
      </trkpt>
      <trkpt lat="42.97911" lon="0.26886">
        <ele>1670.19</ele>
        <time>2021-12-18T10:16:12Z</time>
      </trkpt>
      <trkpt lat="42.97927" lon="0.26875">
        <ele>1686</ele>
        <time>2021-12-18T10:16:48Z</time>
      </trkpt>
      <trkpt lat="42.97943" lon="0.26861">
        <ele>1686</ele>
        <time>2021-12-18T10:17:30Z</time>
      </trkpt>
      <trkpt lat="42.97957" lon="0.26877">
        <ele>1692</ele>
        <time>2021-12-18T10:18:47Z</time>
      </trkpt>
      <trkpt lat="42.9796" lon="0.26901">
        <ele>1702</ele>
        <time>2021-12-18T10:19:44Z</time>
      </trkpt>
      <trkpt lat="42.97956" lon="0.26925">
        <ele>1711</ele>
        <time>2021-12-18T10:20:21Z</time>
      </trkpt>
      <trkpt lat="42.97958" lon="0.2695">
        <ele>1714.99</ele>
        <time>2021-12-18T10:20:58Z</time>
      </trkpt>
      <trkpt lat="42.97959" lon="0.26975">
        <ele>1718</ele>
        <time>2021-12-18T10:21:48Z</time>
      </trkpt>
      <trkpt lat="42.97972" lon="0.26992">
        <ele>1724.3</ele>
        <time>2021-12-18T10:25:25Z</time>
      </trkpt>
      <trkpt lat="42.97981" lon="0.27014">
        <ele>1729</ele>
        <time>2021-12-18T10:26:08Z</time>
      </trkpt>
      <trkpt lat="42.97997" lon="0.27002">
        <ele>1729</ele>
        <time>2021-12-18T10:26:42Z</time>
      </trkpt>
      <trkpt lat="42.98015" lon="0.27007">
        <ele>1748</ele>
        <time>2021-12-18T10:27:59Z</time>
      </trkpt>
      <trkpt lat="42.98031" lon="0.26996">
        <ele>1762</ele>
        <time>2021-12-18T10:29:10Z</time>
      </trkpt>
      <trkpt lat="42.98046" lon="0.2698">
        <ele>1762</ele>
        <time>2021-12-18T10:30:19Z</time>
      </trkpt>
      <trkpt lat="42.9806" lon="0.26965">
        <ele>1767</ele>
        <time>2021-12-18T10:30:48Z</time>
      </trkpt>
      <trkpt lat="42.98077" lon="0.26955">
        <ele>1767</ele>
        <time>2021-12-18T10:31:26Z</time>
      </trkpt>
      <trkpt lat="42.98077" lon="0.2698">
        <ele>1779</ele>
        <time>2021-12-18T10:32:30Z</time>
      </trkpt>
      <trkpt lat="42.9809" lon="0.26996">
        <ele>1789</ele>
        <time>2021-12-18T10:33:37Z</time>
      </trkpt>
      <trkpt lat="42.98089" lon="0.27021">
        <ele>1792</ele>
        <time>2021-12-18T10:34:16Z</time>
      </trkpt>
      <trkpt lat="42.98094" lon="0.27046">
        <ele>1795</ele>
        <time>2021-12-18T10:34:58Z</time>
      </trkpt>
      <trkpt lat="42.98105" lon="0.27066">
        <ele>1796</ele>
        <time>2021-12-18T10:40:48Z</time>
      </trkpt>
      <trkpt lat="42.98085" lon="0.27075">
        <ele>1796</ele>
        <time>2021-12-18T11:15:32Z</time>
      </trkpt>
      <trkpt lat="42.98062" lon="0.27068">
        <ele>1785.01</ele>
        <time>2021-12-18T11:15:39Z</time>
      </trkpt>
      <trkpt lat="42.98045" lon="0.27064">
        <ele>1766</ele>
        <time>2021-12-18T11:15:49Z</time>
      </trkpt>
      <trkpt lat="42.98023" lon="0.27072">
        <ele>1752</ele>
        <time>2021-12-18T11:15:58Z</time>
      </trkpt>
      <trkpt lat="42.98" lon="0.27067">
        <ele>1746.01</ele>
        <time>2021-12-18T11:16:03Z</time>
      </trkpt>
      <trkpt lat="42.97979" lon="0.27064">
        <ele>1730.43</ele>
        <time>2021-12-18T11:16:06Z</time>
      </trkpt>
      <trkpt lat="42.97962" lon="0.27053">
        <ele>1718.4</ele>
        <time>2021-12-18T11:17:01Z</time>
      </trkpt>
      <trkpt lat="42.97943" lon="0.27053">
        <ele>1708.5</ele>
        <time>2021-12-18T11:17:09Z</time>
      </trkpt>
      <trkpt lat="42.97923" lon="0.27044">
        <ele>1704.01</ele>
        <time>2021-12-18T11:17:14Z</time>
      </trkpt>
      <trkpt lat="42.97905" lon="0.2706">
        <ele>1679.36</ele>
        <time>2021-12-18T11:17:20Z</time>
      </trkpt>
      <trkpt lat="42.9789" lon="0.27047">
        <ele>1683</ele>
        <time>2021-12-18T11:17:40Z</time>
      </trkpt>
      <trkpt lat="42.9788" lon="0.27024">
        <ele>1669.44</ele>
        <time>2021-12-18T11:17:45Z</time>
      </trkpt>
      <trkpt lat="42.97871" lon="0.27001">
        <ele>1670</ele>
        <time>2021-12-18T11:17:50Z</time>
      </trkpt>
      <trkpt lat="42.97861" lon="0.26974">
        <ele>1661.48</ele>
        <time>2021-12-18T11:17:54Z</time>
      </trkpt>
      <trkpt lat="42.97841" lon="0.26966">
        <ele>1658</ele>
        <time>2021-12-18T11:18:02Z</time>
      </trkpt>
      <trkpt lat="42.97836" lon="0.26938">
        <ele>1656.6</ele>
        <time>2021-12-18T11:18:05Z</time>
      </trkpt>
      <trkpt lat="42.97831" lon="0.26911">
        <ele>1642.45</ele>
        <time>2021-12-18T11:18:09Z</time>
      </trkpt>
      <trkpt lat="42.97821" lon="0.26886">
        <ele>1639.9</ele>
        <time>2021-12-18T11:18:15Z</time>
      </trkpt>
      <trkpt lat="42.97803" lon="0.26878">
        <ele>1629.9</ele>
        <time>2021-12-18T11:18:22Z</time>
      </trkpt>
      <trkpt lat="42.97785" lon="0.26862">
        <ele>1629</ele>
        <time>2021-12-18T11:18:28Z</time>
      </trkpt>
      <trkpt lat="42.97767" lon="0.26853">
        <ele>1617.25</ele>
        <time>2021-12-18T11:18:33Z</time>
      </trkpt>
      <trkpt lat="42.97751" lon="0.26841">
        <ele>1617</ele>
        <time>2021-12-18T11:19:27Z</time>
      </trkpt>
      <trkpt lat="42.97729" lon="0.26841">
        <ele>1606.01</ele>
        <time>2021-12-18T11:19:33Z</time>
      </trkpt>
      <trkpt lat="42.97714" lon="0.26824">
        <ele>1597.02</ele>
        <time>2021-12-18T11:19:40Z</time>
      </trkpt>
      <trkpt lat="42.97694" lon="0.26819">
        <ele>1590</ele>
        <time>2021-12-18T11:19:46Z</time>
      </trkpt>
      <trkpt lat="42.97681" lon="0.26797">
        <ele>1586.03</ele>
        <time>2021-12-18T11:19:51Z</time>
      </trkpt>
      <trkpt lat="42.97663" lon="0.26797">
        <ele>1577.6</ele>
        <time>2021-12-18T11:19:56Z</time>
      </trkpt>
      <trkpt lat="42.97644" lon="0.26783">
        <ele>1574.01</ele>
        <time>2021-12-18T11:20:01Z</time>
      </trkpt>
      <trkpt lat="42.97644" lon="0.26757">
        <ele>1572</ele>
        <time>2021-12-18T11:20:14Z</time>
      </trkpt>
      <trkpt lat="42.97642" lon="0.26732">
        <ele>1569.08</ele>
        <time>2021-12-18T11:20:18Z</time>
      </trkpt>
      <trkpt lat="42.97625" lon="0.26717">
        <ele>1556.36</ele>
        <time>2021-12-18T11:20:45Z</time>
      </trkpt>
      <trkpt lat="42.97605" lon="0.26705">
        <ele>1546.9</ele>
        <time>2021-12-18T11:20:50Z</time>
      </trkpt>
      <trkpt lat="42.97586" lon="0.26699">
        <ele>1546</ele>
        <time>2021-12-18T11:20:57Z</time>
      </trkpt>
      <trkpt lat="42.97569" lon="0.26682">
        <ele>1532.11</ele>
        <time>2021-12-18T11:21:01Z</time>
      </trkpt>
      <trkpt lat="42.97559" lon="0.26659">
        <ele>1528.11</ele>
        <time>2021-12-18T11:21:09Z</time>
      </trkpt>
      <trkpt lat="42.9756" lon="0.26632">
        <ele>1525.27</ele>
        <time>2021-12-18T11:21:19Z</time>
      </trkpt>
      <trkpt lat="42.97542" lon="0.26637">
        <ele>1517.2</ele>
        <time>2021-12-18T11:21:36Z</time>
      </trkpt>
      <trkpt lat="42.97521" lon="0.26636">
        <ele>1505.3</ele>
        <time>2021-12-18T11:21:44Z</time>
      </trkpt>
      <trkpt lat="42.97503" lon="0.26626">
        <ele>1505</ele>
        <time>2021-12-18T11:21:52Z</time>
      </trkpt>
      <trkpt lat="42.97497" lon="0.26603">
        <ele>1489.06</ele>
        <time>2021-12-18T11:22:00Z</time>
      </trkpt>
      <trkpt lat="42.9748" lon="0.26586">
        <ele>1489</ele>
        <time>2021-12-18T11:22:21Z</time>
      </trkpt>
      <trkpt lat="42.97471" lon="0.26559">
        <ele>1474.99</ele>
        <time>2021-12-18T11:22:27Z</time>
      </trkpt>
      <trkpt lat="42.97456" lon="0.26538">
        <ele>1469</ele>
        <time>2021-12-18T11:22:44Z</time>
      </trkpt>
      <trkpt lat="42.97435" lon="0.26537">
        <ele>1459.9</ele>
        <time>2021-12-18T11:22:49Z</time>
      </trkpt>
      <trkpt lat="42.9742" lon="0.26552">
        <ele>1459</ele>
        <time>2021-12-18T11:22:54Z</time>
      </trkpt>
      <trkpt lat="42.97404" lon="0.26567">
        <ele>1454.27</ele>
        <time>2021-12-18T11:23:00Z</time>
      </trkpt>
      <trkpt lat="42.97388" lon="0.26556">
        <ele>1445.47</ele>
        <time>2021-12-18T11:23:03Z</time>
      </trkpt>
      <trkpt lat="42.97371" lon="0.26574">
        <ele>1443.02</ele>
        <time>2021-12-18T11:23:07Z</time>
      </trkpt>
      <trkpt lat="42.97356" lon="0.26592">
        <ele>1435.88</ele>
        <time>2021-12-18T11:23:12Z</time>
      </trkpt>
      <trkpt lat="42.97336" lon="0.26582">
        <ele>1432.71</ele>
        <time>2021-12-18T11:23:17Z</time>
      </trkpt>
      <trkpt lat="42.9732" lon="0.26572">
        <ele>1421.03</ele>
        <time>2021-12-18T11:23:22Z</time>
      </trkpt>
      <trkpt lat="42.97306" lon="0.26556">
        <ele>1421</ele>
        <time>2021-12-18T11:23:29Z</time>
      </trkpt>
      <trkpt lat="42.97287" lon="0.2654">
        <ele>1410</ele>
        <time>2021-12-18T11:24:05Z</time>
      </trkpt>
      <trkpt lat="42.97267" lon="0.26536">
        <ele>1398.32</ele>
        <time>2021-12-18T11:24:09Z</time>
      </trkpt>
      <trkpt lat="42.97247" lon="0.26534">
        <ele>1391</ele>
        <time>2021-12-18T11:24:13Z</time>
      </trkpt>
      <trkpt lat="42.9723" lon="0.26525">
        <ele>1385.05</ele>
        <time>2021-12-18T11:24:17Z</time>
      </trkpt>
      <trkpt lat="42.97211" lon="0.26505">
        <ele>1373.32</ele>
        <time>2021-12-18T11:24:21Z</time>
      </trkpt>
      <trkpt lat="42.97191" lon="0.26495">
        <ele>1360.96</ele>
        <time>2021-12-18T11:24:25Z</time>
      </trkpt>
      <trkpt lat="42.9717" lon="0.26479">
        <ele>1357.01</ele>
        <time>2021-12-18T11:24:31Z</time>
      </trkpt>
      <trkpt lat="42.97153" lon="0.26474">
        <ele>1345</ele>
        <time>2021-12-18T11:24:41Z</time>
      </trkpt>
      <trkpt lat="42.97133" lon="0.26475">
        <ele>1334.06</ele>
        <time>2021-12-18T11:25:03Z</time>
      </trkpt>
      <trkpt lat="42.97117" lon="0.2646">
        <ele>1329.04</ele>
        <time>2021-12-18T11:25:07Z</time>
      </trkpt>
      <trkpt lat="42.97102" lon="0.26447">
        <ele>1316.35</ele>
        <time>2021-12-18T11:25:10Z</time>
      </trkpt>
      <trkpt lat="42.97078" lon="0.26441">
        <ele>1308.3</ele>
        <time>2021-12-18T11:25:14Z</time>
      </trkpt>
      <trkpt lat="42.97061" lon="0.26433">
        <ele>1305.3</ele>
        <time>2021-12-18T11:25:16Z</time>
      </trkpt>
      <trkpt lat="42.9704" lon="0.26416">
        <ele>1297.24</ele>
        <time>2021-12-18T11:25:20Z</time>
      </trkpt>
      <trkpt lat="42.97026" lon="0.26393">
        <ele>1292.53</ele>
        <time>2021-12-18T11:25:23Z</time>
      </trkpt>
      <trkpt lat="42.9701" lon="0.26371">
        <ele>1287.15</ele>
        <time>2021-12-18T11:25:26Z</time>
      </trkpt>
      <trkpt lat="42.96992" lon="0.26349">
        <ele>1279.72</ele>
        <time>2021-12-18T11:25:29Z</time>
      </trkpt>
      <trkpt lat="42.9697" lon="0.26334">
        <ele>1277.62</ele>
        <time>2021-12-18T11:25:32Z</time>
      </trkpt>
      <trkpt lat="42.9695" lon="0.26312">
        <ele>1273.12</ele>
        <time>2021-12-18T11:25:35Z</time>
      </trkpt>
      <trkpt lat="42.9693" lon="0.26287">
        <ele>1267.17</ele>
        <time>2021-12-18T11:25:38Z</time>
      </trkpt>
      <trkpt lat="42.96911" lon="0.26265">
        <ele>1262.45</ele>
        <time>2021-12-18T11:25:41Z</time>
      </trkpt>
      <trkpt lat="42.96891" lon="0.26245">
        <ele>1260.61</ele>
        <time>2021-12-18T11:25:44Z</time>
      </trkpt>
      <trkpt lat="42.96876" lon="0.26226">
        <ele>1256.12</ele>
        <time>2021-12-18T11:25:47Z</time>
      </trkpt>
      <trkpt lat="42.96858" lon="0.26207">
        <ele>1253.63</ele>
        <time>2021-12-18T11:25:50Z</time>
      </trkpt>
      <trkpt lat="42.96841" lon="0.26198">
        <ele>1253.02</ele>
        <time>2021-12-18T11:25:53Z</time>
      </trkpt>
      <trkpt lat="42.96822" lon="0.26183">
        <ele>1251.05</ele>
        <time>2021-12-18T11:25:57Z</time>
      </trkpt>
      <trkpt lat="42.96808" lon="0.26164">
        <ele>1250.3</ele>
        <time>2021-12-18T11:26:02Z</time>
      </trkpt>
      <trkpt lat="42.96794" lon="0.26148">
        <ele>1250</ele>
        <time>2021-12-18T11:26:18Z</time>
      </trkpt>
      <trkpt lat="42.96781" lon="0.26172">
        <ele>1251.4</ele>
        <time>2021-12-18T11:26:38Z</time>
      </trkpt>
      <trkpt lat="42.96765" lon="0.26193">
        <ele>1245.02</ele>
        <time>2021-12-18T11:26:44Z</time>
      </trkpt>
      <trkpt lat="42.96745" lon="0.26198">
        <ele>1242.76</ele>
        <time>2021-12-18T11:26:52Z</time>
      </trkpt>
      <trkpt lat="42.96721" lon="0.26201">
        <ele>1233.77</ele>
        <time>2021-12-18T11:26:55Z</time>
      </trkpt>
      <trkpt lat="42.967" lon="0.262">
        <ele>1231.25</ele>
        <time>2021-12-18T11:26:57Z</time>
      </trkpt>
      <trkpt lat="42.96678" lon="0.26201">
        <ele>1230.03</ele>
        <time>2021-12-18T11:27:00Z</time>
      </trkpt>
      <trkpt lat="42.96666" lon="0.26179">
        <ele>1225</ele>
        <time>2021-12-18T11:27:57Z</time>
      </trkpt>
      <trkpt lat="42.96651" lon="0.26164">
        <ele>1218.7</ele>
        <time>2021-12-18T11:28:02Z</time>
      </trkpt>
      <trkpt lat="42.96633" lon="0.26149">
        <ele>1214.06</ele>
        <time>2021-12-18T11:28:07Z</time>
      </trkpt>
      <trkpt lat="42.96622" lon="0.26126">
        <ele>1207.19</ele>
        <time>2021-12-18T11:28:13Z</time>
      </trkpt>
      <trkpt lat="42.96618" lon="0.26098">
        <ele>1200.63</ele>
        <time>2021-12-18T11:28:17Z</time>
      </trkpt>
      <trkpt lat="42.96602" lon="0.26082">
        <ele>1194.14</ele>
        <time>2021-12-18T11:28:20Z</time>
      </trkpt>
      <trkpt lat="42.96589" lon="0.26063">
        <ele>1192.06</ele>
        <time>2021-12-18T11:28:23Z</time>
      </trkpt>
      <trkpt lat="42.96577" lon="0.26038">
        <ele>1183.37</ele>
        <time>2021-12-18T11:28:27Z</time>
      </trkpt>
      <trkpt lat="42.96566" lon="0.26014">
        <ele>1178.14</ele>
        <time>2021-12-18T11:28:31Z</time>
      </trkpt>
      <trkpt lat="42.96548" lon="0.25994">
        <ele>1171.86</ele>
        <time>2021-12-18T11:28:35Z</time>
      </trkpt>
      <trkpt lat="42.96532" lon="0.25983">
        <ele>1170.05</ele>
        <time>2021-12-18T11:28:38Z</time>
      </trkpt>
      <trkpt lat="42.96517" lon="0.25965">
        <ele>1163.51</ele>
        <time>2021-12-18T11:28:41Z</time>
      </trkpt>
      <trkpt lat="42.96502" lon="0.25946">
        <ele>1163.01</ele>
        <time>2021-12-18T11:28:44Z</time>
      </trkpt>
      <trkpt lat="42.96486" lon="0.25926">
        <ele>1161.02</ele>
        <time>2021-12-18T11:28:48Z</time>
      </trkpt>
      <trkpt lat="42.96467" lon="0.25914">
        <ele>1156.45</ele>
        <time>2021-12-18T11:28:53Z</time>
      </trkpt>
      <trkpt lat="42.96448" lon="0.25918">
        <ele>1164</ele>
        <time>2021-12-18T11:29:20Z</time>
      </trkpt>
      <trkpt lat="42.9643" lon="0.25931">
        <ele>1161.01</ele>
        <time>2021-12-18T11:29:26Z</time>
      </trkpt>
      <trkpt lat="42.96413" lon="0.25943">
        <ele>1152.81</ele>
        <time>2021-12-18T11:29:31Z</time>
      </trkpt>
      <trkpt lat="42.96392" lon="0.25943">
        <ele>1152</ele>
        <time>2021-12-18T11:29:37Z</time>
      </trkpt>
      <trkpt lat="42.96377" lon="0.25927">
        <ele>1142</ele>
        <time>2021-12-18T11:29:46Z</time>
      </trkpt>
      <trkpt lat="42.96383" lon="0.25901">
        <ele>1134</ele>
        <time>2021-12-18T11:30:03Z</time>
      </trkpt>
      <trkpt lat="42.96363" lon="0.25899">
        <ele>1134</ele>
        <time>2021-12-18T11:30:24Z</time>
      </trkpt>
      <trkpt lat="42.96346" lon="0.25884">
        <ele>1118.05</ele>
        <time>2021-12-18T11:30:32Z</time>
      </trkpt>
      <trkpt lat="42.9633" lon="0.259">
        <ele>1115.8</ele>
        <time>2021-12-18T11:30:39Z</time>
      </trkpt>
      <trkpt lat="42.96327" lon="0.25873">
        <ele>1109.17</ele>
        <time>2021-12-18T11:30:43Z</time>
      </trkpt>
      <trkpt lat="42.96336" lon="0.25851">
        <ele>1110</ele>
        <time>2021-12-18T11:30:53Z</time>
      </trkpt>
      <trkpt lat="42.9632" lon="0.25864">
        <ele>1108.28</ele>
        <time>2021-12-18T11:31:11Z</time>
      </trkpt>
      <trkpt lat="42.96313" lon="0.25841">
        <ele>1101.06</ele>
        <time>2021-12-18T11:31:20Z</time>
      </trkpt>
      <trkpt lat="42.96293" lon="0.25848">
        <ele>1093</ele>
        <time>2021-12-18T11:31:47Z</time>
      </trkpt>
      <trkpt lat="42.96273" lon="0.25858">
        <ele>1085.72</ele>
        <time>2021-12-18T11:31:54Z</time>
      </trkpt>
      <trkpt lat="42.96256" lon="0.25845">
        <ele>1085</ele>
        <time>2021-12-18T11:32:31Z</time>
      </trkpt>
      <trkpt lat="42.96252" lon="0.25817">
        <ele>1077.22</ele>
        <time>2021-12-18T11:32:36Z</time>
      </trkpt>
      <trkpt lat="42.96239" lon="0.25796">
        <ele>1061.3</ele>
        <time>2021-12-18T11:32:41Z</time>
      </trkpt>
      <trkpt lat="42.96239" lon="0.25768">
        <ele>1053</ele>
        <time>2021-12-18T11:33:02Z</time>
      </trkpt>
      <trkpt lat="42.96231" lon="0.25745">
        <ele>1045.22</ele>
        <time>2021-12-18T11:33:09Z</time>
      </trkpt>
      <trkpt lat="42.96222" lon="0.25724">
        <ele>1040.45</ele>
        <time>2021-12-18T11:33:25Z</time>
      </trkpt>
      <trkpt lat="42.96207" lon="0.25703">
        <ele>1033.16</ele>
        <time>2021-12-18T11:34:04Z</time>
      </trkpt>
      <trkpt lat="42.96194" lon="0.25685">
        <ele>1023.67</ele>
        <time>2021-12-18T11:34:07Z</time>
      </trkpt>
      <trkpt lat="42.96188" lon="0.25661">
        <ele>1019.21</ele>
        <time>2021-12-18T11:34:11Z</time>
      </trkpt>
      <trkpt lat="42.96198" lon="0.25637">
        <ele>1017.5</ele>
        <time>2021-12-18T11:34:32Z</time>
      </trkpt>
      <trkpt lat="42.96205" lon="0.25614">
        <ele>1016</ele>
        <time>2021-12-18T11:34:38Z</time>
      </trkpt>
      <trkpt lat="42.96208" lon="0.25589">
        <ele>1011</ele>
        <time>2021-12-18T11:36:19Z</time>
      </trkpt>
      <trkpt lat="42.96218" lon="0.25566">
        <ele>1007</ele>
        <time>2021-12-18T11:36:37Z</time>
      </trkpt>
      <trkpt lat="42.96229" lon="0.25546">
        <ele>1008</ele>
        <time>2021-12-18T11:36:55Z</time>
      </trkpt>
      <trkpt lat="42.96236" lon="0.25522">
        <ele>1006.05</ele>
        <time>2021-12-18T11:37:13Z</time>
      </trkpt>
      <trkpt lat="42.96246" lon="0.25501">
        <ele>1006</ele>
        <time>2021-12-18T11:37:26Z</time>
      </trkpt>
      <trkpt lat="42.96256" lon="0.25479">
        <ele>1005</ele>
        <time>2021-12-18T11:37:44Z</time>
      </trkpt>
    </trkseg>
  </trk>
</gpx>